Aérodrome :
LOGIN :

S'inscrire | Disclaimer

   EN    FR    IT 

 










Légende :    VFR   VFR Marginal   IFR   IFR Intensif   IFR Très Intensif
Visi : 
Plafond : 
>= 8 km
>= 3000ft
5 à 8 km
1000 à 3000 ft
1500m à 5 km
500 à 1000 ft
800 à 1500m
200 à 500 ft
< 800m
< 200 ft
Symboles :   Orages  Brouillard  Fortes neiges  Fortes précipitations  Vent > 20 kt
SIGMETs :   Divers  Orages  Givrage  Turbulence  Onde Orograph.  Cendres Volcan.






- Altitude de l'aérodrome : 3 ft
- Code IATA : LWR


EHLW - Leuuwarden Air Base

DERNIER METAR :
  • 192155Z AUTO 20010KT 170V230 7000 +DZ BKN016 OVC020 05/05 Q1015 WHT

METARs EXPIRÉS :
  • 192136Z AUTO 21011KT 170V230 7000 DZ SCT016 OVC019 05/04 Q1015 WHT
  • 192130Z AUTO 21011KT 170V230 9000 DZ FEW010 BKN017 OVC020 06/04 Q1015 WHT
  • 192118Z AUTO 20011KT 170V230 9999 BKN012 BKN015 OVC020 06/04 Q1016 GRN
  • 192114Z AUTO 20011KT 170V230 9999 SCT012 BKN016 OVC020 06/04 Q1016 GRN
  • 192055Z AUTO 20010KT 170V230 9999 SCT029 BKN032 OVC038 06/03 Q1016 BLU
  • 192039Z AUTO 20010KT 170V230 9999 FEW019 SCT027 BKN035 06/03 Q1016 BLU
  • 192025Z AUTO 21009KT 170V230 9999 FEW035 BKN041 OVC045 05/03 Q1016 BLU
  • 192017Z AUTO 20009KT 160V220 9999 FEW033 BKN041 BKN047 05/03 Q1016 BLU
  • 191955Z AUTO 20008KT 160V230 9999 FEW058 BKN065 OVC071 05/03 Q1016 BLU 20008KT CAVOK
  • 191925Z AUTO 20008KT 170V230 9999 FEW069 BKN083 OVC089 04/03 Q1017 BLU 20008KT CAVOK

TAF TAF EHLW
Valide du 19 à 22h jusqu'au 20 à 10h UTC


192106Z 1922/2010 21012G22KT 9999 BKN030
BECMG 1922/1923 -RA BKN012 OVC015
TEMPO 1922/2003 4000 RADZ SCT006 BKN010
BECMG 2004/2006 21020G30KT NSW FEW012 SCT015 BKN025
PROB40
TEMPO 2004/2010 3000 -DZ FEW008 BKN012



MET'MAP, la Météo Aéronautique d'un coup d'oeil ! - Copyright ORBIFLY Décembre 2007 - Disclaimer

ORBIFLY MET'MAP TEAM :

Programmation & Développement : Alexandra Zaïnal
Sur une idée originale de : Baudouin d'Aumeries
Assistance à la programmation : Marc-Olivier Méhu
Soutien technique & logistique : Manuel Goepfert

Contact : metmap@orbifly.com




SOURCES & CREDITS :

   NOAA